Lincoln, New Hampshire
Current Conditions -  °F | °C
As of 10:15 AM on Thursday 30 Oct 2014 (Local Time) from K1P1 Reporting Station
Overcast Overcast  
Wind Chill: 42°   Ceiling: 8000
Heat Index: 42°   Visibility: 10mi
Dew Point: 42°   Wind: 0mph
Humidity: 100%   Direction: NA
Pressure: 29.93"   Gusts: NA
Location:  44.05°N, 71.67°W
Report Text: K1P1 301415Z AUTO 00000KT 10SM SCT050 SCT060 OVC080 06/06 A2993 RMK AO2 T00550055
Loading
Personal Weather Stations






























Interactive Weather Map
Tropical Storm Tracking
New forecast layout! Learn more

10-Day Weather Forecast

Advertisements
Track Severe Weather on mobile